Flight Track Log - Related Links

Times and Time Zones

All times are in EDT time to prevent confusion due to time zone crossing. See the TGW246 flight status page for this flight to view local times or setup timezone preferences in your user account.

Time Position Orientation Groundspeed Altitude Reporting Facility
EDT Latitude Longitude Course Direction KTS MPH feet Rate Location/Type
Mon 03:31:02 AM -33.9360 151.1780 182° South 1 1  Level FlightAware ADS-B
Mon 03:35:04 AM -33.9370 151.1780 180° South 7 8 61 Level FlightAware ADS-B
Mon 03:35:54 AM -33.9400 151.1780 180° South 15 17 81 Level FlightAware ADS-B
Mon 03:36:20 AM -33.9420 151.1790 157° South 19 22 86 Level FlightAware ADS-B
Mon 03:36:50 AM -33.9440 151.1790 180° South 14 16 90 Level FlightAware ADS-B
Mon 03:37:10 AM -33.9450 151.1790 180° South 12 14 94 Level FlightAware ADS-B
Mon 03:37:30 AM -33.9470 151.1790 180° South 16 18 97 Level FlightAware ADS-B
Mon 03:38:01 AM -33.9490 151.1800 157° South 21 24 100 Level FlightAware ADS-B
Mon 03:38:30 AM -33.9510 151.1810 157° South 13 15 106 Level FlightAware ADS-B
Mon 03:38:51 AM -33.9510 151.1830 90° East 16 18 112 Level FlightAware ADS-B
Mon 03:39:05 AM -33.9500 151.1840 40° Northeast 18 21 116 Level FlightAware ADS-B
Mon 03:39:35 AM -33.9520 151.1860 140° Southeast 17 20 119 Level FlightAware ADS-B
Mon 03:39:50 AM -33.9520 151.1870 90° East 16 18 127 Level FlightAware ADS-B
Mon 03:40:02 AM -33.9530 151.1870 180° South 17 20 131 Level FlightAware ADS-B
Mon 03:40:26 AM -33.9550 151.1880 157° South 20 23 135 Level FlightAware ADS-B
Mon 03:40:50 AM -33.9580 151.1880 180° South 24 28 142 Level FlightAware ADS-B
Mon 03:41:22 AM -33.9610 151.1890 165° South 20 23 151 Level FlightAware ADS-B
Mon 03:41:50 AM -33.9640 151.1900 165° South 25 29 164 Level FlightAware ADS-B
Mon 03:42:16 AM -33.9670 151.1910 165° South 16 18 178 Level FlightAware ADS-B
Mon 03:42:41 AM -33.9690 151.1910 180° South 13 15 192 Level FlightAware ADS-B
Mon 03:43:06 AM -33.9700 151.1910 180° South 15 17 209 Level FlightAware ADS-B
Mon 03:43:20 AM -33.9710 151.1910 180° South 10 12 229 Level FlightAware ADS-B
Mon 03:43:32 AM -33.9710 151.1920 90° East 10 12 242 Level FlightAware ADS-B
Mon 03:43:56 AM -33.9710 151.1930 90° East 254 Level FlightAware ADS-B
Mon 03:46:00 AM -33.7673 151.2795 50° Northeast  Level Estimated
Mon 03:46:52 AM -33.9670 151.1930 62° Northeast 86 99  Level FlightAware ADS-B
Mon 03:47:00 AM -33.7184 151.3906 62° Northeast  Level FlightAware Approximate
Mon 03:47:03 AM -33.9600 151.1910 347° North 135 155  Level FlightAware ADS-B
Mon 03:47:28 AM -33.9430 151.1870 349° North 149 171 1,000 2,743 Climbing FlightAware ADS-B
Mon 03:47:38 AM -33.9360 151.1880 North 151 174 1,600 3,120 Climbing FlightAware ADS-B
Mon 03:47:53 AM -33.9260 151.1920 18° North 147 169 2,300 2,276 Climbing FlightAware ADS-B
Mon 03:48:07 AM -33.9170 151.1990 33° Northeast 157 181 2,700 1,500 Climbing FlightAware ADS-B
Mon 03:48:33 AM -33.9010 151.2140 38° Northeast 184 212 3,300 1,179 Climbing FlightAware ADS-B
Mon 03:49:03 AM -33.8780 151.2350 37° Northeast 224 258 3,800 1,091 Climbing FlightAware ADS-B
Mon 03:49:17 AM -33.8660 151.2460 37° Northeast 246 283 4,100 1,000 Climbing FlightAware ADS-B
Mon 03:49:39 AM -33.8450 151.2640 35° Northeast 264 304 4,400 811 Climbing FlightAware ADS-B
Mon 03:49:54 AM -33.8300 151.2800 42° Northeast 280 322 4,600 968 Climbing FlightAware ADS-B
Mon 03:50:10 AM -33.8210 151.3060 67° East 286 329 4,900 450 Climbing FlightAware ADS-B
Mon 03:50:34 AM -33.8110 151.3430 72° East 287 330 4,900 222 Level FlightAware ADS-B
Mon 03:51:04 AM -33.7980 151.3790 67° East 281 323 5,100 1,200 Climbing FlightAware ADS-B
Mon 03:51:14 AM -33.7860 151.3950 48° Northeast 284 327 5,700 3,200 Climbing FlightAware ADS-B
Mon 03:51:34 AM -33.7680 151.4100 35° Northeast 276 318 6,700 2,791 Climbing FlightAware ADS-B
Mon 03:51:57 AM -33.7390 151.4220 19° North 290 334 7,700 3,176 Climbing FlightAware ADS-B
Mon 03:52:25 AM -33.6970 151.4380 18° North 297 342 9,400 3,097 Climbing FlightAware ADS-B
Mon 03:52:59 AM -33.6521 151.4562 18° North 311 358 10,900 2,154 Climbing Aus ATC (RADAR)
Mon 03:53:04 AM -33.6500 151.4570 18° North 323 372 10,800 1,962 Descending FlightAware ADS-B
Mon 03:53:51 AM -33.5740 151.4880 19° North 359 413 12,600 2,562 Climbing FlightAware ADS-B
Mon 03:54:33 AM -33.5080 151.5140 18° North 363 418 14,600 2,667 Climbing FlightAware ADS-B
Mon 03:55:12 AM -33.4450 151.5400 18° North 372 428 16,200 2,634 Climbing FlightAware ADS-B
Mon 03:55:14 AM -33.4393 151.5416 18° North 370 426 16,400 2,780 Climbing Aus ATC (RADAR)
Mon 03:55:53 AM -33.3790 151.5660 18° North 370 426 18,100 2,500 Climbing FlightAware ADS-B
Mon 03:56:38 AM -33.3050 151.5960 19° North 374 430 19,900 2,188 Climbing FlightAware ADS-B
Mon 03:57:18 AM -33.2370 151.6230 18° North 386 444 21,200 1,909 Climbing FlightAware ADS-B
Mon 03:58:06 AM -33.1560 151.6560 19° North 391 450 22,700 1,852 Climbing FlightAware ADS-B
Mon 03:58:39 AM -33.0970 151.6790 18° North 395 455 23,700 2,384 Climbing FlightAware ADS-B
Mon 03:59:19 AM -33.0272 151.7072 18° North 390 449 25,600 2,571 Climbing Aus ATC (RADAR)
Mon 03:59:21 AM -33.0270 151.7070 18° North 384 442 25,500 1,200 Descending FlightAware ADS-B
Mon 03:59:54 AM -32.9678 151.7305 18° North 387 445 26,300 1,245 Climbing Aus ATC (RADAR)
Mon 04:00:14 AM -32.9350 151.7430 18° North 396 456 26,600 1,082 Climbing FlightAware ADS-B
Mon 04:00:55 AM -32.8650 151.7710 19° North 401 461 27,400 1,680 Climbing FlightAware ADS-B
Mon 04:01:29 AM -32.8020 151.7966 19° North 396 456 28,700 1,737 Climbing Aus ATC (RADAR)
Mon 04:01:33 AM -32.7970 151.7990 19° North 399 459 28,500 343 Descending FlightAware ADS-B
Mon 04:02:04 AM -32.7399 151.8226 19° North 406 467 28,900 714 Climbing Aus ATC (RADAR)
Mon 04:02:15 AM -32.7220 151.8310 19° North 419 482 29,000 1,333 Climbing FlightAware ADS-B
Mon 04:02:49 AM -32.6577 151.8598 19° North 420 483 29,900 1,143 Climbing Aus ATC (RADAR)
Mon 04:02:57 AM -32.6450 151.8660 19° North 424 488 29,800 857 Descending FlightAware ADS-B
Mon 04:03:38 AM -32.5680 151.9000 20° North 429 494 30,600 1,437 Climbing FlightAware ADS-B
Mon 04:04:08 AM -32.5096 151.9257 20° North 427 491 31,500 1,286 Climbing Aus ATC (RADAR)
Mon 04:04:20 AM -32.4900 151.9340 20° North 430 495 31,500 792 Level FlightAware ADS-B
Mon 04:05:01 AM -32.4120 151.9680 20° North 434 499 32,200 1,263 Climbing FlightAware ADS-B
Mon 04:05:36 AM -32.3480 151.9970 21° North 427 491 33,100 1,291 Climbing FlightAware ADS-B
Mon 04:06:20 AM -32.2650 152.0330 20° North 422 486 33,900 1,172 Climbing FlightAware ADS-B
Mon 04:07:03 AM -32.1858 152.0679 20° North 416 479 34,800 955 Climbing Aus ATC (RADAR)
Mon 04:07:04 AM -32.1890 152.0660 20° North 418 481 34,600 533 Descending FlightAware ADS-B
Mon 04:07:48 AM -32.1040 152.1038 20° North 419 482 35,200 682 Climbing Aus ATC (RADAR)
Mon 04:07:48 AM -32.1030 152.1040 20° North 420 483 35,100 529 Descending FlightAware ADS-B
Mon 04:08:22 AM -32.0430 152.1300 20° North 420 483 35,500 1,029 Climbing FlightAware ADS-B
Mon 04:08:23 AM -32.0406 152.1312 20° North 417 480 35,700 1,000 Climbing Aus ATC (RADAR)
Mon 04:08:58 AM -31.9767 152.1590 20° North 417 480 36,100 439 Climbing Aus ATC (RADAR)
Mon 04:09:04 AM -31.9710 152.1610 20° North 419 482 36,000 462 Descending FlightAware ADS-B
Mon 04:09:37 AM -31.9011 152.1915 20° North 418 481 36,400 439 Climbing Aus ATC (RADAR)
Mon 04:09:45 AM -31.8930 152.1950 20° North 425 489 36,300 643 Descending FlightAware ADS-B
Mon 04:10:33 AM -31.8050 152.2340 21° North 423 487 37,000 467 Climbing FlightAware ADS-B
Mon 04:11:15 AM -31.7290 152.2670 20° North 420 483 37,000  Level FlightAware ADS-B
Mon 04:11:54 AM -31.6560 152.2980 20° North 423 487 37,000  Level FlightAware ADS-B
Mon 04:12:41 AM -31.5690 152.3350 20° North 424 488 37,000  Level FlightAware ADS-B
Mon 04:13:17 AM -31.5030 152.3640 20° North 425 489 37,000 324 Level FlightAware ADS-B
Mon 04:13:18 AM -31.4990 152.3654 20° North 419 482 37,200 300 Climbing Aus ATC (RADAR)
Mon 04:13:57 AM -31.4228 152.3983 20° North 424 488 37,200 -267 Level Aus ATC (RADAR)
Mon 04:14:03 AM -31.4200 152.3990 20° North 427 491 37,000  Descending FlightAware ADS-B
Mon 04:14:33 AM -31.3601 152.4254 20° North 424 488 37,200  Climbing Aus ATC (RADAR)
Mon 04:14:45 AM -31.3390 152.4340 20° North 429 494 37,000 -214 Descending FlightAware ADS-B
Mon 04:15:29 AM -31.2560 152.4700 20° North 429 494 37,000  Level FlightAware ADS-B
Mon 04:16:05 AM -31.1930 152.4970 20° North 427 491 37,000  Level FlightAware ADS-B
Mon 04:16:51 AM -31.1040 152.5350 20° North 423 487 37,000 250 Level FlightAware ADS-B
Mon 04:16:53 AM -31.0993 152.5366 20° North 421 484 37,200  Climbing Aus ATC (RADAR)
Mon 04:17:22 AM -31.0470 152.5590 20° North 423 487 37,000 -154 Descending FlightAware ADS-B
Mon 04:18:11 AM -30.9570 152.5980 20° North 424 488 37,000  Level FlightAware ADS-B
Mon 04:18:46 AM -30.8970 152.6230 20° North 424 488 37,000  Level FlightAware ADS-B
Mon 04:19:22 AM -30.8270 152.6530 20° North 424 488 37,000 148 Level FlightAware ADS-B
Mon 04:20:07 AM -30.7398 152.6890 20° North 419 482 37,200  Climbing Aus ATC (RADAR)
Mon 04:20:24 AM -30.7290 152.6940 20° North 424 488 37,000 -226 Descending FlightAware ADS-B
Mon 04:21:00 AM -30.6730 152.7180 20° North 424 488 37,000  Level FlightAware ADS-B
Mon 04:21:47 AM -30.5600 152.7650 20° North 424 488 37,000  Level FlightAware ADS-B
Mon 04:22:27 AM -30.4820 152.7980 20° North 425 489 37,000  Level FlightAware ADS-B
Mon 04:23:07 AM -30.4070 152.8290 20° North 426 490 37,000  Level FlightAware ADS-B
Mon 04:23:52 AM -30.3270 152.8630 20° North 425 489 37,000 141 Level FlightAware ADS-B
Mon 04:24:32 AM -30.2510 152.8943 20° North 420 483 37,200 -150 Climbing Aus ATC (RADAR)
Mon 04:24:32 AM -30.2490 152.8960 20° North 425 489 36,900 -1,029 Descending FlightAware ADS-B
Mon 04:25:07 AM -30.1864 152.9211 20° North 416 479 36,600 -1,200 Descending Aus ATC (RADAR)
Mon 04:25:12 AM -30.1770 152.9260 20° North 420 483 36,100 -2,000 Descending FlightAware ADS-B
Mon 04:25:52 AM -30.1045 152.9542 20° North 409 471 35,100 -1,867 Descending Aus ATC (RADAR)
Mon 04:25:57 AM -30.0950 152.9600 20° North 414 476 34,700 -1,886 Descending FlightAware ADS-B
Mon 04:26:27 AM -30.0422 152.9811 20° North 403 464 34,000 -1,800 Descending Aus ATC (RADAR)
Mon 04:26:37 AM -30.0250 152.9900 20° North 407 468 33,500 -2,160 Descending FlightAware ADS-B
Mon 04:27:17 AM -29.9540 153.0190 19° North 401 461 32,200 -1,714 Descending FlightAware ADS-B
Mon 04:27:47 AM -29.9037 153.0410 19° North 389 448 31,500 -2,000 Descending Aus ATC (RADAR)
Mon 04:28:02 AM -29.8750 153.0520 19° North 393 452 30,700 -2,182 Descending FlightAware ADS-B
Mon 04:28:42 AM -29.8070 153.0800 19° North 389 448 29,500 -1,600 Descending FlightAware ADS-B
Mon 04:28:47 AM -29.8006 153.0823 19° North 383 441 29,500 -1,867 Level Aus ATC (RADAR)
Mon 04:29:27 AM -29.7350 153.1100 20° North 382 440 28,100 -1,875 Descending FlightAware ADS-B
Mon 04:30:07 AM -29.6682 153.1387 20° North 371 427 27,000 -2,100 Descending Aus ATC (RADAR)
Mon 04:30:07 AM -29.6660 153.1380 20° North 378 435 26,700 -2,267 Descending FlightAware ADS-B
Mon 04:30:52 AM -29.5920 153.1690 20° North 372 428 25,300 -1,933 Descending FlightAware ADS-B
Mon 04:31:37 AM -29.5200 153.1980 19° North 367 422 23,800 -1,906 Descending FlightAware ADS-B
Mon 04:32:17 AM -29.4570 153.2240 20° North 362 417 22,600 -1,800 Descending FlightAware ADS-B
Mon 04:32:57 AM -29.3930 153.2500 19° North 356 410 21,400 -1,765 Descending FlightAware ADS-B
Mon 04:33:42 AM -29.3250 153.2780 20° North 349 402 20,100 -1,725 Descending FlightAware ADS-B
Mon 04:34:17 AM -29.2750 153.2990 20° North 344 396 19,100 -2,096 Descending FlightAware ADS-B
Mon 04:35:05 AM -29.1964 153.3302 20° North 344 396 17,200  Descending Aus ATC (RADAR)
Mon 04:35:07 AM -29.2110 153.3240 20° North 344 396 19,100 -2,057 Climbing FlightAware ADS-B
Mon 04:35:40 AM -29.1422 153.3539 20° North 356 410 16,000  Descending Aus ATC (RADAR)
Mon 04:35:43 AM -29.1650 153.3420 20° North 344 396 19,100 -1,733 Climbing FlightAware ADS-B
Mon 04:36:25 AM -29.0740 153.3821 20° North 348 400 14,700 -6,409 Descending Aus ATC (RADAR)
Mon 04:36:27 AM -29.0730 153.3820 20° North 342 394 14,400 -2,000 Descending FlightAware ADS-B
Mon 04:37:07 AM -29.0160 153.4050 19° North 333 383 13,300 -1,624 Descending FlightAware ADS-B
Mon 04:37:52 AM -28.9500 153.4320 20° North 327 376 12,100 -1,765 Descending FlightAware ADS-B
Mon 04:38:32 AM -28.8940 153.4540 19° North 330 380 10,800 -1,233 Descending FlightAware ADS-B
Mon 04:39:05 AM -28.8440 153.4747 19° North 322 371 10,600 -750 Descending Aus ATC (RADAR)
Mon 04:39:12 AM -28.8360 153.4780 19° North 307 353 10,300 -1,459 Descending FlightAware ADS-B
Mon 04:39:42 AM -28.7980 153.4930 19° North 298 343 9,700 -909 Descending FlightAware ADS-B
Mon 04:39:45 AM -28.7913 153.4960 19° North 303 349 9,800 -1,091 Climbing Aus ATC (RADAR)
Mon 04:39:53 AM -28.7850 153.4990 19° North 293 337 9,500 -514 Descending FlightAware ADS-B
Mon 04:40:20 AM -28.7467 153.5141 19° North 294 338 9,500 -448 Level Aus ATC (RADAR)
Mon 04:41:00 AM -28.6975 153.5345 20° North 281 323 9,000 -525 Descending Aus ATC (RADAR)
Mon 04:41:40 AM -28.6506 153.5531 19° North 271 312 8,800 -880 Descending Aus ATC (RADAR)
Mon 04:42:15 AM -28.6076 153.5701 19° North 279 321 7,900 -1,500 Descending Aus ATC (RADAR)
Mon 04:43:00 AM -28.5524 153.5927 20° North 281 323 6,800 -1,371 Descending Aus ATC (RADAR)
Mon 04:44:00 AM -28.4795 153.6108 12° North 267 307 5,500 -1,260 Descending Aus ATC (RADAR)
Mon 04:44:40 AM -28.4315 153.6178 North 262 302 4,700 -1,200 Descending Aus ATC (RADAR)
Mon 04:45:15 AM -28.3900 153.6245 North 258 297 4,000 -1,304 Descending Aus ATC (RADAR)
Mon 04:45:49 AM -28.3498 153.6306 North 250 288 3,200 -957 Descending Aus ATC (RADAR)
Mon 04:46:49 AM -28.2928 153.6129 345° North 221 254 2,500 -684 Descending Aus ATC (RADAR)
Mon 04:47:43 AM -28.2560 153.5810 345° North 182 209 1,900 -741 Descending FlightAware ADS-B
Mon 04:48:10 AM -28.2410 153.5680 323° Northwest 163 188 1,500 -873 Descending FlightAware ADS-B
Mon 04:48:38 AM -28.2240 153.5530 322° Northwest 134 154 1,100 -610 Descending FlightAware ADS-B
Mon 04:49:09 AM -28.2119 153.5360 322° Northwest 130 150 900 -686 Descending Aus ATC (RADAR)
Mon 04:49:13 AM -28.2100 153.5350 322° Northwest 128 147 700 -450 Descending FlightAware ADS-B
Mon 04:49:49 AM -28.1960 153.5230 323° Northwest 128 147 600 -167 Descending FlightAware ADS-B
Mon 04:53:00 AM -28.1644 153.5048 North  Level FlightAware Approximate
Mon 04:54:00 AM -28.1644 153.5047 North  Level Estimated
Mon 04:55:00 AM -28.1644 153.5047 North  Level Estimated
Mon 04:56:00 AM -28.1644 153.5047 North  Level Estimated

Login

Don't have an account? Register now (free) for customized features, flight alerts, and more!